createdAt,value
2022-08-17T00:01:38.510Z,19.96
2022-08-17T00:04:19.327Z,19.99
2022-08-17T00:06:46.372Z,19.96
2022-08-17T00:09:18.368Z,19.89
2022-08-17T00:12:35.568Z,19.82
2022-08-17T00:14:36.243Z,19.86
2022-08-17T00:17:06.533Z,19.84
2022-08-17T00:19:33.653Z,19.73
2022-08-17T00:22:32.748Z,19.66
2022-08-17T00:24:49.988Z,19.52
2022-08-17T00:27:17.382Z,19.48
2022-08-17T00:29:45.836Z,19.47
2022-08-17T00:33:16.081Z,19.44
2022-08-17T00:35:00.674Z,19.41
2022-08-17T00:37:27.714Z,19.30
2022-08-17T00:39:54.532Z,19.42
2022-08-17T00:42:21.156Z,19.48
2022-08-17T00:44:47.793Z,19.39
2022-08-17T00:47:14.411Z,19.45
2022-08-17T00:49:41.010Z,19.46
2022-08-17T00:52:16.599Z,19.56
2022-08-17T00:54:46.643Z,19.72
2022-08-17T00:57:15.518Z,19.89
2022-08-17T00:59:47.150Z,19.81
2022-08-17T01:02:40.368Z,19.88
2022-08-17T01:05:15.021Z,19.76
2022-08-17T01:07:42.987Z,19.61
2022-08-17T01:10:58.269Z,19.39
2022-08-17T01:13:02.409Z,19.33
2022-08-17T01:15:36.364Z,19.26
2022-08-17T01:18:05.396Z,19.18
2022-08-17T01:20:32.501Z,19.27
2022-08-17T01:23:20.830Z,19.22
2022-08-17T01:25:57.153Z,19.19
2022-08-17T01:28:33.482Z,19.24
2022-08-17T01:31:14.284Z,19.04
2022-08-17T01:33:41.035Z,19.04
2022-08-17T01:36:08.180Z,19.08
2022-08-17T01:38:37.225Z,18.94
2022-08-17T01:41:11.339Z,18.86
2022-08-17T01:43:44.231Z,18.88
2022-08-17T01:46:16.122Z,18.73
2022-08-17T01:48:43.834Z,18.61
2022-08-17T01:51:10.407Z,18.63
2022-08-17T01:53:41.594Z,18.63
2022-08-17T01:56:12.367Z,18.69
2022-08-17T01:58:40.811Z,18.67
2022-08-17T02:01:08.533Z,18.55
2022-08-17T02:03:36.815Z,18.52
2022-08-17T02:06:05.419Z,18.48
2022-08-17T02:08:39.258Z,18.44
2022-08-17T02:11:22.391Z,18.41
2022-08-17T02:13:57.947Z,18.24
2022-08-17T02:16:37.395Z,18.20
2022-08-17T02:19:10.574Z,18.26
2022-08-17T02:21:38.941Z,18.32
2022-08-17T02:24:08.600Z,18.17
2022-08-17T02:26:36.146Z,18.08
2022-08-17T02:29:04.087Z,17.97
2022-08-17T02:31:31.090Z,18.01
2022-08-17T02:34:04.131Z,18.13
2022-08-17T02:36:34.148Z,18.17
2022-08-17T02:39:05.677Z,18.00
2022-08-17T02:41:32.254Z,17.85
2022-08-17T02:43:58.796Z,17.78
2022-08-17T02:46:25.673Z,17.60
2022-08-17T02:48:52.236Z,17.65
2022-08-17T02:51:18.722Z,17.63
2022-08-17T02:53:53.710Z,17.66
2022-08-17T02:56:40.322Z,17.75
2022-08-17T02:59:06.984Z,17.68
2022-08-17T03:01:33.804Z,17.61
2022-08-17T03:04:01.216Z,17.62
2022-08-17T03:06:29.353Z,17.69
2022-08-17T03:08:56.062Z,17.70
2022-08-17T03:11:23.628Z,17.63
2022-08-17T03:13:50.449Z,17.61
2022-08-17T03:16:17.144Z,17.52
2022-08-17T03:21:24.314Z,17.52
2022-08-17T03:23:54.402Z,17.43
2022-08-17T03:26:22.625Z,17.46
2022-08-17T03:28:50.439Z,17.51
2022-08-17T03:31:18.623Z,17.59
2022-08-17T03:33:45.875Z,17.66
2022-08-17T03:36:12.682Z,17.73
2022-08-17T03:38:39.641Z,17.52
2022-08-17T03:43:48.007Z,17.26
2022-08-17T03:46:35.088Z,17.31
2022-08-17T03:49:26.339Z,17.39
2022-08-17T03:52:12.894Z,17.34
2022-08-17T03:54:58.952Z,17.37
2022-08-17T03:57:26.208Z,17.35
2022-08-17T03:59:57.070Z,17.35
2022-08-17T04:02:32.605Z,17.35
2022-08-17T04:04:59.770Z,17.43
2022-08-17T04:07:29.918Z,17.38
2022-08-17T04:09:58.164Z,17.27
2022-08-17T04:12:26.491Z,17.32
2022-08-17T04:14:54.975Z,17.47
2022-08-17T04:17:30.838Z,17.37
2022-08-17T04:19:57.418Z,17.36
2022-08-17T04:22:32.790Z,17.28
2022-08-17T04:25:13.811Z,17.24
2022-08-17T04:27:40.397Z,17.18
2022-08-17T04:30:07.751Z,17.19
2022-08-17T04:33:00.829Z,17.17
2022-08-17T04:35:37.563Z,17.01
2022-08-17T04:38:05.245Z,16.99
2022-08-17T04:40:50.727Z,16.90
2022-08-17T04:43:21.090Z,16.93
2022-08-17T04:45:56.172Z,17.18
2022-08-17T04:48:36.499Z,17.24
2022-08-17T04:51:11.568Z,17.32
2022-08-17T04:53:41.420Z,17.42
2022-08-17T04:56:11.844Z,17.64
2022-08-17T04:58:50.224Z,17.69
2022-08-17T05:01:23.150Z,17.61
2022-08-17T05:03:51.440Z,17.65
2022-08-17T05:06:17.944Z,17.70
2022-08-17T05:08:44.403Z,17.81
2022-08-17T05:11:10.963Z,17.81
2022-08-17T05:13:37.456Z,17.72
2022-08-17T05:16:04.650Z,17.85
2022-08-17T05:18:31.878Z,17.98
2022-08-17T05:20:58.837Z,18.01
2022-08-17T05:23:27.367Z,18.17
2022-08-17T05:26:22.003Z,18.28
2022-08-17T05:28:59.691Z,18.19
2022-08-17T05:31:30.172Z,18.24
2022-08-17T05:33:57.050Z,18.21
2022-08-17T05:36:41.984Z,18.36
2022-08-17T05:39:10.769Z,18.44
2022-08-17T05:41:44.806Z,18.56
2022-08-17T05:44:11.336Z,18.56
2022-08-17T05:46:41.594Z,18.53
2022-08-17T05:49:08.609Z,18.57
2022-08-17T05:51:50.393Z,18.76
2022-08-17T05:54:56.354Z,18.86
2022-08-17T05:57:54.234Z,18.91
2022-08-17T06:00:30.546Z,19.05
2022-08-17T06:03:22.080Z,19.08
2022-08-17T06:06:05.337Z,19.28
2022-08-17T06:08:51.721Z,19.40
2022-08-17T06:11:21.428Z,19.51
2022-08-17T06:14:18.156Z,19.76
2022-08-17T06:16:50.023Z,19.95
2022-08-17T06:19:38.250Z,20.33
2022-08-17T06:22:08.589Z,20.44
2022-08-17T06:24:44.321Z,20.55
2022-08-17T06:27:37.168Z,20.54
2022-08-17T06:30:25.805Z,20.87
2022-08-17T06:32:55.202Z,21.66
2022-08-17T06:35:48.670Z,23.10
2022-08-17T06:38:56.255Z,24.00
2022-08-17T06:41:49.471Z,25.54
2022-08-17T06:44:49.933Z,25.98
2022-08-17T06:47:13.520Z,27.08
2022-08-17T06:49:55.278Z,27.97
2022-08-17T06:52:45.858Z,27.92
2022-08-17T06:55:46.856Z,28.44
2022-08-17T06:58:16.461Z,28.09
2022-08-17T07:00:46.982Z,27.81
2022-08-17T07:03:54.526Z,27.56
2022-08-17T07:06:26.718Z,28.87
2022-08-17T07:09:02.304Z,28.34
2022-08-17T07:11:42.418Z,27.79
2022-08-17T07:14:27.785Z,29.53
2022-08-17T07:17:01.625Z,30.60
2022-08-17T07:22:59.871Z,31.80
2022-08-17T07:25:30.399Z,32.65
2022-08-17T07:28:06.042Z,32.56
2022-08-17T07:30:50.919Z,31.98
2022-08-17T07:33:39.317Z,30.93
2022-08-17T07:36:29.617Z,31.44
2022-08-17T07:38:58.211Z,32.56
2022-08-17T07:41:53.219Z,33.08
2022-08-17T07:44:16.229Z,33.96
2022-08-17T07:47:11.672Z,33.91
2022-08-17T07:49:41.316Z,34.08
2022-08-17T07:52:51.256Z,34.17
2022-08-17T07:55:34.856Z,34.17
2022-08-17T07:58:02.047Z,34.09
2022-08-17T08:00:32.363Z,33.18
2022-08-17T08:03:31.858Z,32.24
2022-08-17T08:06:02.159Z,33.12
2022-08-17T08:08:42.610Z,33.62
2022-08-17T08:11:15.798Z,33.37
2022-08-17T08:13:45.533Z,33.78
2022-08-17T08:16:20.880Z,32.70
2022-08-17T08:18:55.826Z,34.38
2022-08-17T08:21:41.805Z,34.55
2022-08-17T08:24:40.123Z,34.40
2022-08-17T08:27:18.534Z,33.68
2022-08-17T08:29:57.639Z,33.88
2022-08-17T08:32:54.070Z,34.14
2022-08-17T08:35:30.851Z,34.11
2022-08-17T08:38:12.408Z,35.36
2022-08-17T08:40:48.049Z,35.87
2022-08-17T08:43:37.917Z,35.49
2022-08-17T08:46:15.691Z,36.64
2022-08-17T08:49:39.108Z,36.74
2022-08-17T08:52:24.486Z,35.28
2022-08-17T08:55:02.884Z,33.89
2022-08-17T08:57:38.380Z,34.27
2022-08-17T09:00:19.191Z,34.09
2022-08-17T09:02:51.845Z,33.41
2022-08-17T09:05:48.337Z,34.37
2022-08-17T09:08:50.338Z,34.33
2022-08-17T09:11:35.694Z,33.78
2022-08-17T09:14:33.585Z,32.96
2022-08-17T09:17:14.220Z,33.73
2022-08-17T09:19:57.599Z,33.68
2022-08-17T09:22:33.144Z,34.01
2022-08-17T09:25:27.235Z,34.56
2022-08-17T09:28:04.690Z,34.68
2022-08-17T09:31:02.439Z,35.89
2022-08-17T09:33:31.976Z,34.90
2022-08-17T09:36:04.822Z,35.51
2022-08-17T09:39:22.842Z,35.25
2022-08-17T09:41:59.307Z,34.87
2022-08-17T09:48:18.216Z,35.23
2022-08-17T09:51:05.342Z,35.96
2022-08-17T09:53:37.654Z,35.84
2022-08-17T09:56:19.751Z,35.12
2022-08-17T09:58:56.413Z,34.99
2022-08-17T10:01:46.989Z,35.06
2022-08-17T10:07:14.681Z,35.20
2022-08-17T10:12:47.084Z,36.92
2022-08-17T10:16:00.035Z,34.48
2022-08-17T10:18:42.884Z,36.50
2022-08-17T10:21:36.185Z,36.32
2022-08-17T10:24:41.041Z,36.25
2022-08-17T10:27:48.911Z,34.95
2022-08-17T10:30:23.276Z,34.31
2022-08-17T10:32:57.302Z,34.10
2022-08-17T10:35:47.710Z,33.23
2022-08-17T10:38:33.295Z,33.29
2022-08-17T10:41:40.878Z,33.52
2022-08-17T10:44:41.333Z,33.83
2022-08-17T10:47:17.843Z,34.00
2022-08-17T10:49:49.768Z,33.56
2022-08-17T10:52:19.682Z,33.31
2022-08-17T10:55:07.986Z,33.38
2022-08-17T10:57:45.306Z,33.60
2022-08-17T11:00:17.212Z,33.37
2022-08-17T11:02:51.710Z,33.63
2022-08-17T11:05:45.578Z,33.49
2022-08-17T11:08:30.368Z,33.82
2022-08-17T11:11:23.386Z,34.39
2022-08-17T11:14:07.515Z,34.14
2022-08-17T11:17:02.121Z,34.06
2022-08-17T11:19:59.754Z,34.19
2022-08-17T11:22:47.735Z,34.56
2022-08-17T11:25:20.763Z,35.04
2022-08-17T11:27:54.012Z,34.72
2022-08-17T11:30:47.093Z,34.66
2022-08-17T11:33:41.837Z,34.16
2022-08-17T11:36:14.899Z,34.48
2022-08-17T11:38:58.028Z,34.71
2022-08-17T11:41:51.088Z,35.15
2022-08-17T11:44:23.650Z,34.86
2022-08-17T11:47:27.146Z,34.31
2022-08-17T11:50:32.080Z,34.07
2022-08-17T11:52:58.915Z,33.87
2022-08-17T11:55:38.503Z,33.20
2022-08-17T11:58:27.151Z,33.29
2022-08-17T12:01:02.477Z,33.34
2022-08-17T12:03:32.117Z,32.92
2022-08-17T12:06:30.197Z,32.76
2022-08-17T12:09:09.255Z,32.85
2022-08-17T12:11:58.767Z,32.66
2022-08-17T12:15:05.989Z,33.22
2022-08-17T12:17:41.244Z,33.27
2022-08-17T12:20:27.965Z,32.58
2022-08-17T12:22:57.604Z,32.40
2022-08-17T12:25:38.630Z,32.55
2022-08-17T12:28:20.183Z,33.17
2022-08-17T12:30:52.157Z,33.74
2022-08-17T12:33:25.571Z,33.97
2022-08-17T12:36:00.334Z,33.64
2022-08-17T12:38:32.825Z,33.68
2022-08-17T12:41:20.811Z,33.94
2022-08-17T12:43:58.612Z,33.94
2022-08-17T12:46:25.881Z,34.14
2022-08-17T12:48:58.799Z,34.26
2022-08-17T12:51:26.061Z,34.29
2022-08-17T12:53:55.126Z,33.97
2022-08-17T12:56:23.743Z,34.09
2022-08-17T12:59:00.040Z,34.08
2022-08-17T13:01:29.303Z,33.93
2022-08-17T13:04:00.132Z,34.23
2022-08-17T13:06:33.343Z,34.26
2022-08-17T13:09:17.837Z,34.10
2022-08-17T13:11:55.426Z,33.32
2022-08-17T13:14:22.534Z,33.25
2022-08-17T13:16:56.111Z,33.37
2022-08-17T13:19:29.889Z,32.92
2022-08-17T13:22:15.581Z,32.96
2022-08-17T13:24:53.739Z,32.97
2022-08-17T13:27:22.457Z,32.69
2022-08-17T13:29:59.525Z,32.32
2022-08-17T13:32:36.472Z,32.39
2022-08-17T13:35:32.835Z,32.14
2022-08-17T13:38:16.975Z,32.10
2022-08-17T13:40:49.950Z,32.22
2022-08-17T13:43:46.578Z,32.11
2022-08-17T13:46:23.982Z,32.14
2022-08-17T13:49:03.505Z,31.72
2022-08-17T13:51:42.047Z,31.79
2022-08-17T13:54:23.979Z,31.59
2022-08-17T13:56:58.274Z,31.68
2022-08-17T13:59:54.584Z,31.72
2022-08-17T14:02:28.491Z,31.85
2022-08-17T14:04:57.610Z,31.77
2022-08-17T14:10:22.371Z,32.25
2022-08-17T14:12:50.898Z,32.23
2022-08-17T14:15:23.399Z,32.14
2022-08-17T14:18:10.101Z,31.98
2022-08-17T14:20:36.914Z,32.05
2022-08-17T14:23:03.847Z,31.91
2022-08-17T14:25:30.755Z,32.06
2022-08-17T14:27:57.634Z,32.03
2022-08-17T14:30:28.901Z,32.12
2022-08-17T14:32:58.259Z,32.36
2022-08-17T14:35:28.081Z,32.58
2022-08-17T14:37:55.720Z,32.79
2022-08-17T14:40:27.875Z,32.86
2022-08-17T14:42:59.858Z,32.59
2022-08-17T14:45:32.304Z,32.25
2022-08-17T14:48:10.132Z,32.02
2022-08-17T14:50:42.562Z,31.75
2022-08-17T14:53:12.428Z,31.75
2022-08-17T14:55:42.296Z,31.63
2022-08-17T14:58:09.885Z,31.57
2022-08-17T15:00:43.882Z,31.22
2022-08-17T15:03:12.160Z,30.99
2022-08-17T15:05:40.032Z,30.64
2022-08-17T15:08:07.886Z,30.44
2022-08-17T15:10:37.798Z,30.07
2022-08-17T15:13:04.670Z,29.98
2022-08-17T15:15:34.470Z,29.83
2022-08-17T15:18:02.586Z,29.79
2022-08-17T15:20:30.355Z,29.88
2022-08-17T15:23:01.146Z,30.04
2022-08-17T15:25:32.291Z,30.01
2022-08-17T15:28:03.576Z,29.84
2022-08-17T15:30:34.643Z,29.71
2022-08-17T15:33:04.457Z,29.59
2022-08-17T15:35:38.511Z,29.67
2022-08-17T15:38:12.004Z,29.60
2022-08-17T15:40:45.106Z,29.54
2022-08-17T15:43:15.739Z,29.48
2022-08-17T15:45:43.782Z,29.46
2022-08-17T15:48:12.302Z,29.49
2022-08-17T15:50:41.862Z,29.46
2022-08-17T15:53:10.935Z,29.55
2022-08-17T15:55:42.634Z,29.59
2022-08-17T15:58:12.539Z,29.57
2022-08-17T16:00:53.089Z,29.48
2022-08-17T16:04:01.602Z,29.37
2022-08-17T16:06:19.576Z,29.29
2022-08-17T16:08:46.734Z,29.36
2022-08-17T16:11:16.447Z,29.46
2022-08-17T16:13:54.879Z,29.58
2022-08-17T16:16:26.150Z,29.53
2022-08-17T16:18:58.863Z,29.52
2022-08-17T16:21:28.255Z,29.49
2022-08-17T16:26:41.169Z,29.57
2022-08-17T16:29:12.968Z,29.61
2022-08-17T16:31:41.969Z,29.66
2022-08-17T16:34:16.935Z,29.75
2022-08-17T16:36:54.996Z,29.75
2022-08-17T16:39:24.265Z,29.79
2022-08-17T16:41:51.600Z,29.80
2022-08-17T16:44:21.507Z,29.70
2022-08-17T16:46:48.827Z,29.82
2022-08-17T16:49:35.992Z,29.97
2022-08-17T16:52:10.859Z,29.78
2022-08-17T16:54:40.797Z,29.76
2022-08-17T16:57:07.935Z,29.93
2022-08-17T16:59:42.205Z,29.66
2022-08-17T17:05:06.795Z,29.65
2022-08-17T17:07:59.128Z,29.38
2022-08-17T17:13:44.401Z,29.44
2022-08-17T17:16:37.748Z,29.42
2022-08-17T17:19:35.002Z,29.26
2022-08-17T17:22:17.201Z,29.17
2022-08-17T17:24:58.586Z,29.07
2022-08-17T17:28:00.291Z,29.07
2022-08-17T17:33:40.777Z,28.71
2022-08-17T17:36:25.665Z,28.67
2022-08-17T17:44:48.389Z,28.58
2022-08-17T17:47:25.887Z,28.54
2022-08-17T17:49:52.684Z,28.42
2022-08-17T17:56:07.926Z,28.39
2022-08-17T17:59:25.728Z,28.28
2022-08-17T18:08:04.758Z,28.28
2022-08-17T18:10:50.250Z,28.15
2022-08-17T18:13:47.697Z,28.05
2022-08-17T18:16:15.599Z,27.97
2022-08-17T18:18:59.505Z,27.96
2022-08-17T18:21:36.575Z,27.83
2022-08-17T18:24:11.829Z,27.79
2022-08-17T18:33:29.284Z,27.77
2022-08-17T18:35:58.507Z,27.71
2022-08-17T18:38:38.125Z,27.72
2022-08-17T18:41:30.754Z,27.69
2022-08-17T18:44:16.381Z,27.71
2022-08-17T18:46:43.737Z,27.71
2022-08-17T18:49:19.762Z,27.79
2022-08-17T18:51:46.906Z,27.80
2022-08-17T18:54:22.727Z,27.76
2022-08-17T18:56:56.225Z,27.72
2022-08-17T18:59:34.773Z,27.63
2022-08-17T19:02:15.505Z,27.57
2022-08-17T19:05:13.312Z,27.26
2022-08-17T19:07:52.455Z,27.17
2022-08-17T19:10:46.315Z,27.06
2022-08-17T19:13:24.505Z,27.08
2022-08-17T19:16:15.070Z,26.87
2022-08-17T19:18:54.780Z,26.79
2022-08-17T19:21:39.206Z,26.81
2022-08-17T19:24:19.680Z,26.82
2022-08-17T19:27:22.023Z,26.72
2022-08-17T19:30:05.385Z,26.69
2022-08-17T19:32:35.355Z,26.46
2022-08-17T19:35:04.516Z,26.35
2022-08-17T19:37:55.045Z,26.19
2022-08-17T19:40:52.970Z,26.13
2022-08-17T19:43:26.394Z,26.11
2022-08-17T19:46:39.317Z,26.09
2022-08-17T19:49:33.225Z,26.06
2022-08-17T19:52:26.985Z,26.01
2022-08-17T19:55:01.740Z,25.95
2022-08-17T19:57:57.480Z,25.89
2022-08-17T20:00:24.914Z,25.78
2022-08-17T20:03:05.865Z,25.68
2022-08-17T20:06:09.168Z,25.65
2022-08-17T20:08:39.584Z,25.50
2022-08-17T20:11:12.134Z,25.33
2022-08-17T20:13:55.961Z,25.25
2022-08-17T20:16:23.509Z,25.19
2022-08-17T20:18:59.345Z,25.06
2022-08-17T20:21:37.353Z,25.08
2022-08-17T20:24:22.984Z,25.08
2022-08-17T20:26:58.564Z,25.08
2022-08-17T20:29:54.969Z,24.99
2022-08-17T20:32:31.874Z,24.94
2022-08-17T20:35:11.384Z,25.01
2022-08-17T20:37:44.460Z,24.99
2022-08-17T20:40:18.226Z,25.02
2022-08-17T20:42:45.449Z,25.02
2022-08-17T20:45:21.496Z,24.92
2022-08-17T20:48:18.495Z,24.69
2022-08-17T20:50:44.421Z,24.61
2022-08-17T20:53:13.660Z,24.52
2022-08-17T20:55:52.168Z,24.24
2022-08-17T20:58:29.950Z,24.20
2022-08-17T21:00:58.679Z,24.17
2022-08-17T21:03:26.820Z,24.26
2022-08-17T21:06:11.138Z,24.26
2022-08-17T21:08:59.302Z,24.30
2022-08-17T21:12:03.120Z,24.26
2022-08-17T21:14:32.093Z,24.26
2022-08-17T21:17:25.839Z,24.23
2022-08-17T21:20:18.510Z,24.06
2022-08-17T21:23:08.767Z,23.82
2022-08-17T21:26:04.516Z,23.64
2022-08-17T21:28:37.868Z,23.59
2022-08-17T21:31:29.799Z,23.42
2022-08-17T21:34:16.333Z,23.33
2022-08-17T21:36:51.025Z,23.32
2022-08-17T21:39:28.299Z,23.24
2022-08-17T21:41:59.900Z,23.25
2022-08-17T21:44:37.476Z,23.28
2022-08-17T21:47:13.077Z,23.23
2022-08-17T21:49:39.779Z,23.28
2022-08-17T21:52:07.570Z,23.34
2022-08-17T21:54:39.302Z,23.39
2022-08-17T21:57:18.142Z,23.33
2022-08-17T21:59:45.558Z,23.37
2022-08-17T22:02:21.670Z,23.29
2022-08-17T22:05:04.102Z,23.26
2022-08-17T22:07:45.881Z,23.15
2022-08-17T22:10:37.181Z,23.03
2022-08-17T22:13:16.818Z,22.90
2022-08-17T22:16:15.175Z,22.97
2022-08-17T22:18:43.922Z,22.86
2022-08-17T22:21:10.939Z,22.84
2022-08-17T22:24:00.185Z,22.96
2022-08-17T22:27:01.177Z,23.02
2022-08-17T22:29:57.451Z,23.16
2022-08-17T22:32:43.864Z,23.22
2022-08-17T22:35:24.617Z,23.25
2022-08-17T22:37:52.631Z,23.07
2022-08-17T22:40:32.132Z,22.86
2022-08-17T22:43:03.501Z,22.77
2022-08-17T22:45:30.557Z,22.74
2022-08-17T22:48:00.316Z,22.74
2022-08-17T22:50:30.937Z,22.84
2022-08-17T22:53:34.181Z,22.81
2022-08-17T22:56:19.505Z,22.85
2022-08-17T22:59:17.090Z,22.81
2022-08-17T23:01:46.226Z,22.88
2022-08-17T23:04:32.454Z,22.86
2022-08-17T23:06:59.647Z,22.90
2022-08-17T23:09:26.431Z,22.92
2022-08-17T23:11:58.872Z,22.95
2022-08-17T23:14:31.374Z,23.00
2022-08-17T23:16:59.441Z,23.00
2022-08-17T23:19:27.380Z,22.92
2022-08-17T23:21:58.324Z,23.02
2022-08-17T23:24:28.599Z,23.16
2022-08-17T23:26:57.380Z,23.17
2022-08-17T23:29:29.395Z,23.04
2022-08-17T23:31:59.947Z,22.90
2022-08-17T23:34:28.506Z,22.57
2022-08-17T23:36:56.244Z,22.46
2022-08-17T23:39:27.565Z,22.40
2022-08-17T23:41:57.405Z,22.49
2022-08-17T23:44:24.095Z,22.35
2022-08-17T23:46:52.594Z,22.40
2022-08-17T23:49:19.789Z,22.41
2022-08-17T23:51:48.395Z,22.36
2022-08-17T23:54:18.036Z,22.26
2022-08-17T23:56:47.417Z,22.14
2022-08-17T23:59:19.215Z,22.12
